createdAt,value
2022-08-27T00:00:09.249Z,4.599
2022-08-27T00:01:08.708Z,5.099
2022-08-27T00:02:08.634Z,6.900
2022-08-27T00:03:08.007Z,5.400
2022-08-27T00:04:08.167Z,6
2022-08-27T00:05:07.715Z,4.099
2022-08-27T00:06:07.867Z,6.5
2022-08-27T00:07:08.276Z,7.099
2022-08-27T00:09:07.633Z,10
2022-08-27T00:10:07.781Z,6.5
2022-08-27T00:11:08.022Z,6
2022-08-27T00:12:07.945Z,6.800
2022-08-27T00:13:08.044Z,6.300
2022-08-27T00:14:08.073Z,9.300
2022-08-27T00:15:07.681Z,8.300
2022-08-27T00:16:07.747Z,7.300
2022-08-27T00:17:07.826Z,7.699
2022-08-27T00:18:07.981Z,8.100
2022-08-27T00:19:07.671Z,8.699
2022-08-27T00:20:07.723Z,7.400
2022-08-27T00:21:07.953Z,9
2022-08-27T00:22:08.075Z,9.800
2022-08-27T00:23:07.885Z,8.899
2022-08-27T00:24:08.161Z,7.5
2022-08-27T00:25:07.620Z,8.899
2022-08-27T00:26:07.734Z,8.199
2022-08-27T00:27:08.101Z,8.800
2022-08-27T00:28:07.933Z,9.300
2022-08-27T00:29:07.471Z,8.199
2022-08-27T00:30:07.863Z,7.400
2022-08-27T00:31:08.225Z,8.800
2022-08-27T00:32:07.824Z,7.5
2022-08-27T00:33:07.748Z,11.19
2022-08-27T00:34:07.820Z,8
2022-08-27T00:35:07.756Z,9.899
2022-08-27T00:36:07.860Z,10.5
2022-08-27T00:37:07.560Z,10.60
2022-08-27T00:38:07.718Z,9.600
2022-08-27T00:39:07.949Z,9.300
2022-08-27T00:40:08.091Z,10.60
2022-08-27T00:41:07.646Z,10
2022-08-27T00:42:07.403Z,9.699
2022-08-27T00:43:07.499Z,10.60
2022-08-27T00:44:07.583Z,13
2022-08-27T00:45:07.853Z,11.10
2022-08-27T00:46:07.911Z,14.30
2022-08-27T00:47:08.182Z,9.600
2022-08-27T00:48:07.492Z,12.69
2022-08-27T00:49:07.968Z,11.39
2022-08-27T00:50:08.478Z,10.39
2022-08-27T00:51:07.699Z,9.899
2022-08-27T00:52:07.912Z,7.599
2022-08-27T00:53:08.168Z,9.800
2022-08-27T00:54:08.148Z,7.300
2022-08-27T00:55:08.152Z,9
2022-08-27T00:56:07.625Z,10.89
2022-08-27T00:57:07.563Z,7.699
2022-08-27T00:58:07.571Z,8.699
2022-08-27T00:59:07.978Z,12.69
2022-08-27T01:00:08.441Z,8.5
2022-08-27T01:01:07.892Z,10.10
2022-08-27T01:02:08.312Z,9.300
2022-08-27T01:03:07.673Z,8.199
2022-08-27T01:04:07.911Z,8.699
2022-08-27T01:05:08.114Z,8.199
2022-08-27T01:06:07.592Z,9.100
2022-08-27T01:07:07.456Z,9.5
2022-08-27T01:08:07.341Z,6.699
2022-08-27T01:09:07.841Z,11.39
2022-08-27T01:10:08.035Z,14.60
2022-08-27T01:11:08.312Z,9.300
2022-08-27T01:12:07.339Z,9.399
2022-08-27T01:13:07.389Z,8.600
2022-08-27T01:14:08.150Z,10.39
2022-08-27T01:15:08.224Z,10.89
2022-08-27T01:16:08.054Z,8.100
2022-08-27T01:17:07.764Z,9.800
2022-08-27T01:18:07.893Z,10.69
2022-08-27T01:19:07.649Z,10.60
2022-08-27T01:20:07.880Z,12.69
2022-08-27T01:21:07.596Z,11
2022-08-27T01:22:07.526Z,11.60
2022-08-27T01:23:07.651Z,11.89
2022-08-27T01:24:07.868Z,12.69
2022-08-27T01:25:08.236Z,11.69
2022-08-27T01:26:07.764Z,10.39
2022-08-27T01:27:08.138Z,11.5
2022-08-27T01:28:07.900Z,12.30
2022-08-27T01:29:07.208Z,11.60
2022-08-27T01:30:08.547Z,12.69
2022-08-27T01:31:07.787Z,11.39
2022-08-27T01:32:08.058Z,14.10
2022-08-27T01:33:07.960Z,11.89
2022-08-27T01:34:07.318Z,15.5
2022-08-27T01:35:08.269Z,13.39
2022-08-27T01:36:07.491Z,13.80
2022-08-27T01:37:07.366Z,15.69
2022-08-27T01:38:09.365Z,15
2022-08-27T01:39:08.013Z,14
2022-08-27T01:40:07.631Z,14.80
2022-08-27T01:41:07.853Z,20.60
2022-08-27T01:42:07.898Z,20.39
2022-08-27T01:43:07.734Z,22.39
2022-08-27T01:44:07.665Z,20.60
2022-08-27T01:45:08.187Z,26.60
2022-08-27T01:46:07.545Z,22.60
2022-08-27T01:47:07.627Z,23.39
2022-08-27T01:48:07.603Z,24.60
2022-08-27T01:49:07.664Z,24.70
2022-08-27T01:50:07.780Z,24.5
2022-08-27T01:51:08.246Z,24.79
2022-08-27T01:53:08.140Z,26.20
2022-08-27T01:54:07.650Z,26.5
2022-08-27T01:55:07.891Z,27.5
2022-08-27T01:56:07.875Z,26
2022-08-27T01:57:08.112Z,27.5
2022-08-27T01:58:07.988Z,26
2022-08-27T01:59:07.842Z,29.5
2022-08-27T02:00:08.477Z,29.39
2022-08-27T02:01:07.776Z,28.5
2022-08-27T02:02:08.332Z,29.60
2022-08-27T02:03:07.558Z,26.39
2022-08-27T02:04:07.635Z,27.39
2022-08-27T02:05:07.961Z,28.89
2022-08-27T02:06:08.022Z,28.39
2022-08-27T02:07:08.127Z,28
2022-08-27T02:08:08.281Z,28.29
2022-08-27T02:09:07.602Z,29.5
2022-08-27T02:10:07.682Z,28.79
2022-08-27T02:11:07.694Z,29.39
2022-08-27T02:12:08.020Z,31.39
2022-08-27T02:14:07.893Z,27.70
2022-08-27T02:15:07.803Z,31
2022-08-27T02:16:07.976Z,31.70
2022-08-27T02:17:08.151Z,34.5
2022-08-27T02:18:07.737Z,31.79
2022-08-27T02:19:09.794Z,34.90
2022-08-27T02:20:07.811Z,36.70
2022-08-27T02:21:07.855Z,36.5
2022-08-27T02:22:07.952Z,35.79
2022-08-27T02:23:08.104Z,38
2022-08-27T02:24:07.645Z,36.29
2022-08-27T02:25:10.297Z,38.09
2022-08-27T02:26:07.926Z,36.5
2022-08-27T02:27:08.094Z,34.90
2022-08-27T02:28:08.452Z,32.79
2022-08-27T02:29:07.964Z,33.09
2022-08-27T02:30:08.177Z,34.29
2022-08-27T02:31:07.475Z,35.40
2022-08-27T02:32:07.679Z,32.70
2022-08-27T02:33:08.110Z,34.20
2022-08-27T02:34:08.001Z,32.29
2022-08-27T02:35:08.628Z,31.60
2022-08-27T02:36:08.118Z,34
2022-08-27T02:37:07.381Z,30.70
2022-08-27T02:38:08.316Z,32
2022-08-27T02:39:08.044Z,28.39
2022-08-27T02:40:08.156Z,27.60
2022-08-27T02:41:07.379Z,30
2022-08-27T02:43:08.231Z,27.89
2022-08-27T02:44:10.401Z,28.5
2022-08-27T02:45:07.461Z,30.70
2022-08-27T02:46:07.591Z,31.39
2022-08-27T02:47:07.756Z,28.39
2022-08-27T02:48:07.967Z,29.60
2022-08-27T02:49:07.712Z,27.5
2022-08-27T02:50:08.304Z,28.5
2022-08-27T02:51:07.706Z,28.60
2022-08-27T02:52:07.778Z,27.79
2022-08-27T02:53:08.006Z,30.20
2022-08-27T02:54:08.538Z,27.20
2022-08-27T02:55:08.209Z,27.5
2022-08-27T02:56:08.096Z,29.60
2022-08-27T02:57:08.151Z,30.70
2022-08-27T02:58:08.480Z,28.89
2022-08-27T02:59:07.773Z,29.29
2022-08-27T03:00:08.515Z,28.79
2022-08-27T03:01:11.384Z,29.39
2022-08-27T03:02:08.264Z,34.5
2022-08-27T03:03:07.963Z,28.70
2022-08-27T03:04:08.329Z,29.29
2022-08-27T03:05:07.703Z,31.5
2022-08-27T03:06:07.567Z,30.39
2022-08-27T03:07:07.829Z,32.79
2022-08-27T03:08:07.721Z,29.60
2022-08-27T03:09:08.223Z,28.29
2022-08-27T03:10:08.465Z,26.20
2022-08-27T03:11:07.897Z,29
2022-08-27T03:12:08.129Z,26.5
2022-08-27T03:13:08.144Z,27.89
2022-08-27T03:14:08.246Z,25.79
2022-08-27T03:15:07.469Z,25.20
2022-08-27T03:16:07.526Z,25.89
2022-08-27T03:17:07.996Z,24.89
2022-08-27T03:18:07.532Z,25
2022-08-27T03:19:08.007Z,22.79
2022-08-27T03:20:07.996Z,24.20
2022-08-27T03:21:08.008Z,25.89
2022-08-27T03:22:07.816Z,22.79
2022-08-27T03:23:07.805Z,21
2022-08-27T03:24:11.524Z,20.70
2022-08-27T03:25:07.736Z,21.20
2022-08-27T03:26:07.808Z,16.79
2022-08-27T03:27:07.599Z,18.89
2022-08-27T03:28:22.498Z,19
2022-08-27T03:29:07.774Z,16
2022-08-27T03:30:08.635Z,17.89
2022-08-27T03:31:08.577Z,17
2022-08-27T03:32:07.654Z,15.30
2022-08-27T03:33:07.812Z,14.19
2022-08-27T03:34:07.835Z,13.80
2022-08-27T03:35:07.888Z,14.39
2022-08-27T03:36:08.107Z,12
2022-08-27T03:37:07.424Z,10.89
2022-08-27T03:38:07.794Z,12.89
2022-08-27T03:39:08.494Z,10.19
2022-08-27T03:40:08.105Z,11.39
2022-08-27T03:41:07.582Z,14.30
2022-08-27T03:42:07.677Z,13
2022-08-27T03:43:07.628Z,10.19
2022-08-27T03:44:07.687Z,12.80
2022-08-27T03:45:08.600Z,11.30
2022-08-27T03:46:08.111Z,10.69
2022-08-27T03:47:08.225Z,9.600
2022-08-27T03:48:07.620Z,9.100
2022-08-27T03:49:07.867Z,9
2022-08-27T03:50:12.964Z,10.30
2022-08-27T03:51:08.199Z,10.89
2022-08-27T03:52:07.389Z,10
2022-08-27T03:53:07.565Z,8.300
2022-08-27T03:54:07.803Z,11.5
2022-08-27T03:55:07.848Z,10.69
2022-08-27T03:56:08.078Z,8.300
2022-08-27T03:57:07.458Z,12.80
2022-08-27T03:58:07.771Z,8.800
2022-08-27T03:59:07.562Z,12
2022-08-27T04:00:08.281Z,10.39
2022-08-27T04:01:08.019Z,9.5
2022-08-27T04:02:07.628Z,8.800
2022-08-27T04:03:08.388Z,10.5
2022-08-27T04:04:07.776Z,9.5
2022-08-27T04:05:07.982Z,11
2022-08-27T04:06:08.051Z,8.5
2022-08-27T04:07:08.338Z,6.300
2022-08-27T04:08:07.676Z,7.900
2022-08-27T04:09:08.391Z,7
2022-08-27T04:10:07.758Z,6.5
2022-08-27T04:11:08.254Z,9.5
2022-08-27T04:12:07.433Z,8.100
2022-08-27T04:13:07.730Z,8.199
2022-08-27T04:14:26.107Z,6.400
2022-08-27T04:15:08.143Z,5.300
2022-08-27T04:16:07.626Z,9.199
2022-08-27T04:17:07.862Z,6.900
2022-08-27T04:18:08.184Z,6.5
2022-08-27T04:19:07.908Z,11.5
2022-08-27T04:20:33.883Z,7.400
2022-08-27T04:21:07.878Z,6.099
2022-08-27T04:22:08.514Z,8
2022-08-27T04:23:08.036Z,7.599
2022-08-27T04:25:11.534Z,8.5
2022-08-27T04:26:08.028Z,8.300
2022-08-27T04:27:08.417Z,9.300
2022-08-27T04:28:08.051Z,9.899
2022-08-27T04:29:07.681Z,7.199
2022-08-27T04:30:08.158Z,10
2022-08-27T04:31:12.921Z,7.199
2022-08-27T04:32:08.000Z,8
2022-08-27T04:33:08.144Z,7.099
2022-08-27T04:34:07.823Z,9.399
2022-08-27T04:35:08.160Z,5.900
2022-08-27T04:36:07.677Z,9.800
2022-08-27T04:37:08.152Z,8.5
2022-08-27T04:38:07.815Z,8.399
2022-08-27T04:39:08.316Z,9.199
2022-08-27T04:40:08.035Z,7.599
2022-08-27T04:41:07.778Z,6.900
2022-08-27T04:42:08.223Z,7.599
2022-08-27T04:43:07.855Z,7.699
2022-08-27T04:44:08.055Z,13.10
2022-08-27T04:45:08.356Z,6
2022-08-27T04:46:07.969Z,8
2022-08-27T04:47:07.969Z,7.199
2022-08-27T04:48:08.056Z,10
2022-08-27T04:49:10.208Z,9.899
2022-08-27T04:50:07.999Z,12.89
2022-08-27T04:51:08.165Z,9.199
2022-08-27T04:52:07.733Z,10.39
2022-08-27T04:53:07.999Z,11.10
2022-08-27T04:54:08.203Z,9.699
2022-08-27T04:55:07.644Z,6.699
2022-08-27T04:56:08.063Z,7.199
2022-08-27T04:57:08.158Z,7.300
2022-08-27T04:58:07.689Z,11.80
2022-08-27T04:59:08.065Z,10.89
2022-08-27T05:00:08.832Z,8.600
2022-08-27T05:01:07.798Z,11.89
2022-08-27T05:02:08.062Z,9.699
2022-08-27T05:03:08.298Z,11.39
2022-08-27T05:04:07.794Z,9.199
2022-08-27T05:05:07.912Z,9.899
2022-08-27T05:06:07.578Z,8.699
2022-08-27T05:07:07.720Z,8.5
2022-08-27T05:08:08.166Z,7.900
2022-08-27T05:09:07.857Z,11.39
2022-08-27T05:10:08.495Z,13.5
2022-08-27T05:11:08.277Z,10.19
2022-08-27T05:12:07.833Z,10.30
2022-08-27T05:13:07.958Z,12.69
2022-08-27T05:14:08.249Z,10.60
2022-08-27T05:15:07.804Z,8.399
2022-08-27T05:16:08.455Z,8.699
2022-08-27T05:17:08.043Z,11.89
2022-08-27T05:18:07.702Z,7.5
2022-08-27T05:19:08.136Z,10.19
2022-08-27T05:20:08.286Z,10.39
2022-08-27T05:21:07.875Z,9.800
2022-08-27T05:22:08.304Z,9.600
2022-08-27T05:23:07.918Z,9.300
2022-08-27T05:24:08.400Z,10.60
2022-08-27T05:25:08.056Z,8.300
2022-08-27T05:26:07.738Z,10
2022-08-27T05:27:08.053Z,11.5
2022-08-27T05:28:08.059Z,7.800
2022-08-27T05:29:07.666Z,11
2022-08-27T05:30:08.421Z,10.69
2022-08-27T05:31:07.995Z,11.19
2022-08-27T05:32:08.585Z,8.800
2022-08-27T05:33:08.351Z,9.5
2022-08-27T05:34:10.129Z,8.699
2022-08-27T05:35:07.932Z,7.400
2022-08-27T05:36:08.239Z,6.599
2022-08-27T05:37:08.011Z,9
2022-08-27T05:38:08.531Z,8.800
2022-08-27T05:39:08.201Z,8.600
2022-08-27T05:40:07.873Z,6.800
2022-08-27T05:41:08.401Z,9.899
2022-08-27T05:42:07.809Z,9
2022-08-27T05:43:08.181Z,7.900
2022-08-27T05:44:36.798Z,5.400
2022-08-27T05:45:08.601Z,8.699
2022-08-27T05:46:08.645Z,8
2022-08-27T05:47:08.476Z,10.10
2022-08-27T05:48:08.077Z,8.600
2022-08-27T05:49:07.589Z,9.899
2022-08-27T05:50:08.054Z,8.300
2022-08-27T05:51:07.730Z,5.699
2022-08-27T05:52:07.918Z,6.900
2022-08-27T05:53:08.361Z,10.80
2022-08-27T05:54:08.895Z,6.099
2022-08-27T05:55:07.785Z,9
2022-08-27T05:56:08.078Z,8.399
2022-08-27T05:57:08.300Z,7
2022-08-27T05:58:08.194Z,5.599
2022-08-27T05:59:07.615Z,5.300
2022-08-27T06:00:09.316Z,10.60
2022-08-27T06:01:10.345Z,9.5
2022-08-27T06:02:08.211Z,8.899
2022-08-27T06:03:07.571Z,7.800
2022-08-27T06:04:08.488Z,8.100
2022-08-27T06:05:08.309Z,8.5
2022-08-27T06:06:08.015Z,6.300
2022-08-27T06:07:08.689Z,9.199
2022-08-27T06:08:08.652Z,6.599
2022-08-27T06:09:13.295Z,7.199
2022-08-27T06:10:07.926Z,7.900
2022-08-27T06:11:13.275Z,10.10
2022-08-27T06:12:07.901Z,7.699
2022-08-27T06:13:08.272Z,7.5
2022-08-27T06:14:08.238Z,6.300
2022-08-27T06:15:08.088Z,9.600
2022-08-27T06:16:08.072Z,10.5
2022-08-27T06:17:07.815Z,4.199
2022-08-27T06:18:07.967Z,6.300
2022-08-27T06:19:15.728Z,6
2022-08-27T06:20:08.067Z,9.800
2022-08-27T06:21:08.294Z,8
2022-08-27T06:22:10.097Z,7.5
2022-08-27T06:23:07.797Z,9.600
2022-08-27T06:24:08.098Z,10.10
2022-08-27T06:25:08.528Z,6.900
2022-08-27T06:26:07.915Z,9.300
2022-08-27T06:27:08.080Z,8.199
2022-08-27T06:28:08.510Z,4.800
2022-08-27T06:29:08.470Z,8.300
2022-08-27T06:30:08.441Z,6.599
2022-08-27T06:31:08.000Z,8.600
2022-08-27T06:32:08.508Z,6.5
2022-08-27T06:33:07.911Z,9.300
2022-08-27T06:34:08.129Z,15.5
2022-08-27T06:35:08.706Z,7.400
2022-08-27T06:36:08.580Z,9.800
2022-08-27T06:37:07.935Z,7.199
2022-08-27T06:38:07.982Z,9
2022-08-27T06:39:07.523Z,6.300
2022-08-27T06:40:07.877Z,10.60
2022-08-27T06:41:08.350Z,8.5
2022-08-27T06:42:08.002Z,10.39
2022-08-27T06:43:08.730Z,10.10
2022-08-27T06:44:08.242Z,8.800
2022-08-27T06:45:08.115Z,7.900
2022-08-27T06:46:07.568Z,7.099
2022-08-27T06:47:08.178Z,9.600
2022-08-27T06:48:07.875Z,8.699
2022-08-27T06:49:08.086Z,8.199
2022-08-27T06:50:08.119Z,5
2022-08-27T06:51:08.128Z,9.100
2022-08-27T06:52:08.315Z,8.699
2022-08-27T06:53:07.763Z,11.19
2022-08-27T06:54:08.005Z,8.100
2022-08-27T06:55:08.150Z,10.69
2022-08-27T06:56:08.356Z,8
2022-08-27T06:57:07.792Z,11.39
2022-08-27T06:58:08.068Z,9.899
2022-08-27T06:59:11.819Z,11.30
2022-08-27T07:00:08.300Z,10.30
2022-08-27T07:01:07.866Z,13.30
2022-08-27T07:02:08.216Z,11.60
2022-08-27T07:03:07.942Z,10.19
2022-08-27T07:04:08.455Z,11.10
2022-08-27T07:05:08.227Z,9.800
2022-08-27T07:06:07.775Z,12.30
2022-08-27T07:07:08.151Z,14.60
2022-08-27T07:08:08.490Z,12.5
2022-08-27T07:09:08.206Z,10.30
2022-08-27T07:10:08.736Z,11.80
2022-08-27T07:11:08.429Z,10.19
2022-08-27T07:12:08.008Z,9.600
2022-08-27T07:13:08.313Z,9.199
2022-08-27T07:14:07.776Z,8.199
2022-08-27T07:16:08.023Z,10.80
2022-08-27T07:17:10.779Z,11.39
2022-08-27T07:18:08.278Z,11.60
2022-08-27T07:19:08.657Z,10.5
2022-08-27T07:20:08.071Z,13.89
2022-08-27T07:21:08.205Z,9.300
2022-08-27T07:22:07.945Z,9.5
2022-08-27T07:23:10.999Z,13.39
2022-08-27T07:24:08.209Z,9.899
2022-08-27T07:25:08.176Z,12.19
2022-08-27T07:26:08.361Z,8.5
2022-08-27T07:27:08.037Z,10.10
2022-08-27T07:28:08.198Z,9.899
2022-08-27T07:29:07.793Z,10.5
2022-08-27T07:30:08.376Z,7.900
2022-08-27T07:32:08.563Z,11.39
2022-08-27T07:33:08.202Z,10.30
2022-08-27T07:35:07.713Z,10.19
2022-08-27T07:36:07.931Z,10.10
2022-08-27T07:37:07.902Z,8.600
2022-08-27T07:38:08.121Z,10.39
2022-08-27T07:39:08.096Z,9.100
2022-08-27T07:40:08.527Z,9.199
2022-08-27T07:41:08.424Z,12.30
2022-08-27T07:42:07.783Z,10.19
2022-08-27T07:43:08.105Z,9.300
2022-08-27T07:44:08.475Z,9.5
2022-08-27T07:45:08.224Z,7.699
2022-08-27T07:46:08.205Z,12.30
2022-08-27T07:47:08.658Z,9.300
2022-08-27T07:48:08.201Z,13.5
2022-08-27T07:49:08.489Z,10.69
2022-08-27T07:50:08.307Z,10.89
2022-08-27T07:51:07.767Z,12.80
2022-08-27T07:52:08.209Z,11
2022-08-27T07:53:08.921Z,14.19
2022-08-27T07:54:07.758Z,10.80
2022-08-27T07:55:08.486Z,13.30
2022-08-27T07:56:07.905Z,14.10
2022-08-27T07:57:08.203Z,16.70
2022-08-27T07:58:11.531Z,17
2022-08-27T07:59:08.338Z,21.5
2022-08-27T08:00:09.223Z,23.20
2022-08-27T08:01:08.574Z,19.5
2022-08-27T08:02:08.099Z,20.5
2022-08-27T08:03:08.559Z,23
2022-08-27T08:04:07.785Z,23.10
2022-08-27T08:05:08.320Z,20.79
2022-08-27T08:06:08.471Z,19.79
2022-08-27T08:07:07.940Z,20.70
2022-08-27T08:08:07.926Z,20.79
2022-08-27T08:09:10.660Z,20.29
2022-08-27T08:10:07.930Z,18.39
2022-08-27T08:11:08.099Z,20.60
2022-08-27T08:12:07.618Z,29.79
2022-08-27T08:13:07.977Z,27
2022-08-27T08:14:08.380Z,26.70
2022-08-27T08:15:08.163Z,24.10
2022-08-27T08:16:08.286Z,22.60
2022-08-27T08:17:08.859Z,20.70
2022-08-27T08:18:08.307Z,23.20
2022-08-27T08:19:08.018Z,22
2022-08-27T08:20:30.881Z,27.20
2022-08-27T08:21:08.198Z,26
2022-08-27T08:22:08.452Z,27.10
2022-08-27T08:23:09.758Z,21.5
2022-08-27T08:24:08.075Z,20.70
2022-08-27T08:25:08.412Z,21.10
2022-08-27T08:26:08.243Z,21.20
2022-08-27T08:27:08.086Z,24
2022-08-27T08:28:08.380Z,27
2022-08-27T08:29:08.582Z,23.60
2022-08-27T08:30:08.276Z,26.10
2022-08-27T08:31:07.781Z,21.79
2022-08-27T08:32:08.254Z,24.39
2022-08-27T08:33:07.709Z,24.70
2022-08-27T08:34:08.047Z,25.20
2022-08-27T08:35:08.165Z,24.89
2022-08-27T08:36:07.944Z,27.5
2022-08-27T08:37:08.213Z,24.79
2022-08-27T08:38:08.259Z,26.5
2022-08-27T08:39:07.948Z,22.79
2022-08-27T08:40:08.121Z,27.60
2022-08-27T08:41:07.749Z,26.79
2022-08-27T08:42:07.958Z,26.60
2022-08-27T08:43:08.846Z,26.20
2022-08-27T08:44:16.154Z,27.5
2022-08-27T08:45:08.703Z,26.60
2022-08-27T08:46:07.974Z,25.39
2022-08-27T08:47:08.178Z,27
2022-08-27T08:48:07.708Z,25.89
2022-08-27T08:49:08.158Z,26.29
2022-08-27T08:50:08.434Z,27.20
2022-08-27T08:51:08.373Z,25
2022-08-27T08:52:07.925Z,28.10
2022-08-27T08:53:07.886Z,23.10
2022-08-27T08:54:08.083Z,25.29
2022-08-27T08:55:08.415Z,22.79
2022-08-27T08:56:07.815Z,22.89
2022-08-27T08:57:08.469Z,23
2022-08-27T08:58:08.430Z,29.70
2022-08-27T08:59:08.423Z,27.79
2022-08-27T09:00:08.190Z,24.60
2022-08-27T09:01:07.920Z,21.29
2022-08-27T09:02:12.767Z,23.39
2022-08-27T09:03:08.062Z,25
2022-08-27T09:04:08.711Z,23.89
2022-08-27T09:05:08.163Z,23.79
2022-08-27T09:06:08.537Z,19.10
2022-08-27T09:07:07.847Z,18.29
2022-08-27T09:08:31.932Z,17.89
2022-08-27T09:09:07.484Z,18.60
2022-08-27T09:10:08.178Z,18.39
2022-08-27T09:11:07.853Z,17.39
2022-08-27T09:13:08.140Z,14
2022-08-27T09:14:11.508Z,13.60
2022-08-27T09:15:09.307Z,13.39
2022-08-27T09:16:08.113Z,16.10
2022-08-27T09:17:11.457Z,12.19
2022-08-27T09:18:08.463Z,10.19
2022-08-27T09:19:07.926Z,13.69
2022-08-27T09:20:07.687Z,12.69
2022-08-27T09:21:09.027Z,14.10
2022-08-27T09:22:08.193Z,15.39
2022-08-27T09:23:07.923Z,12.89
2022-08-27T09:24:08.357Z,13.80
2022-08-27T09:25:07.906Z,14.89
2022-08-27T09:26:08.103Z,12.89
2022-08-27T09:27:08.225Z,14.89
2022-08-27T09:28:07.957Z,14
2022-08-27T09:29:07.631Z,20.29
2022-08-27T09:30:08.211Z,15.80
2022-08-27T09:31:07.936Z,20
2022-08-27T09:32:07.807Z,16.60
2022-08-27T09:33:08.068Z,19.10
2022-08-27T09:34:08.297Z,18
2022-08-27T09:35:07.652Z,17.39
2022-08-27T09:36:08.112Z,16.5
2022-08-27T09:37:08.144Z,15.60
2022-08-27T09:38:08.525Z,17.29
2022-08-27T09:39:08.280Z,17
2022-08-27T09:40:13.639Z,17.5
2022-08-27T09:41:08.008Z,17.70
2022-08-27T09:42:08.157Z,15.80
2022-08-27T09:43:08.473Z,18.5
2022-08-27T09:44:07.861Z,16.89
2022-08-27T09:45:09.071Z,18.70
2022-08-27T09:46:08.139Z,16.89
2022-08-27T09:47:07.918Z,16.39
2022-08-27T09:48:08.379Z,15.80
2022-08-27T09:49:08.024Z,17.20
2022-08-27T09:50:07.911Z,16.10
2022-08-27T09:51:08.251Z,14.19
2022-08-27T09:52:07.727Z,13.69
2022-08-27T09:53:08.271Z,14.39
2022-08-27T09:54:07.869Z,13.39
2022-08-27T09:55:08.268Z,13.5
2022-08-27T09:56:07.840Z,12.89
2022-08-27T09:57:07.734Z,13.19
2022-08-27T09:58:08.166Z,13
2022-08-27T09:59:07.609Z,11.89
2022-08-27T10:00:08.996Z,11.30
2022-08-27T10:01:08.145Z,12.10
2022-08-27T10:02:12.223Z,12.19
2022-08-27T10:03:07.751Z,11.60
2022-08-27T10:04:08.283Z,11.89
2022-08-27T10:05:07.705Z,14.19
2022-08-27T10:06:08.419Z,11.39
2022-08-27T10:07:08.183Z,11.89
2022-08-27T10:08:08.205Z,12
2022-08-27T10:09:08.219Z,11.80
2022-08-27T10:10:07.786Z,12.39
2022-08-27T10:11:08.562Z,13.19
2022-08-27T10:12:08.266Z,12.60
2022-08-27T10:13:10.191Z,12.19
2022-08-27T10:14:08.467Z,15.39
2022-08-27T10:15:08.074Z,12.80
2022-08-27T10:16:07.810Z,14.19
2022-08-27T10:17:07.549Z,12.89
2022-08-27T10:19:07.553Z,13.10
2022-08-27T10:20:08.182Z,14.80
2022-08-27T10:21:08.064Z,12.69
2022-08-27T10:22:08.223Z,13.80
2022-08-27T10:23:08.466Z,12.5
2022-08-27T10:24:08.108Z,12.60
2022-08-27T10:25:08.508Z,15
2022-08-27T10:26:08.106Z,12.5
2022-08-27T10:27:08.207Z,14.39
2022-08-27T10:28:08.350Z,14
2022-08-27T10:29:08.115Z,13
2022-08-27T10:30:07.969Z,13.60
2022-08-27T10:31:07.991Z,15.5
2022-08-27T10:32:08.638Z,13.60
2022-08-27T10:33:08.250Z,12.19
2022-08-27T10:34:08.029Z,12.5
2022-08-27T10:35:08.049Z,12.30
2022-08-27T10:36:08.054Z,12.69
2022-08-27T10:37:07.994Z,11.89
2022-08-27T10:38:08.224Z,12
2022-08-27T10:39:08.098Z,10.60
2022-08-27T10:40:08.688Z,10.5
2022-08-27T10:42:08.224Z,12.39
2022-08-27T10:43:07.523Z,10.10
2022-08-27T10:44:07.912Z,11.69
2022-08-27T10:45:08.282Z,10.39
2022-08-27T10:46:07.659Z,8.600
2022-08-27T10:47:07.669Z,10.10
2022-08-27T10:48:07.863Z,11.19
2022-08-27T10:49:07.853Z,10.69
2022-08-27T10:50:07.902Z,10.19
2022-08-27T10:51:08.107Z,10.89
2022-08-27T10:52:08.616Z,10.30
2022-08-27T10:53:08.035Z,10
2022-08-27T10:54:08.262Z,10.60
2022-08-27T10:55:08.582Z,9.800
2022-08-27T10:56:08.456Z,10.39
2022-08-27T10:57:28.585Z,9.600
2022-08-27T10:58:08.287Z,11.60
2022-08-27T10:59:07.920Z,9.399
2022-08-27T11:00:08.664Z,9.699
2022-08-27T11:01:07.875Z,9.300
2022-08-27T11:02:08.435Z,8.5
2022-08-27T11:03:13.843Z,7.300
2022-08-27T11:04:07.954Z,7.599
2022-08-27T11:05:13.234Z,7.400
2022-08-27T11:06:07.883Z,9
2022-08-27T11:07:08.235Z,8.300
2022-08-27T11:08:07.731Z,13
2022-08-27T11:09:08.053Z,8.399
2022-08-27T11:10:08.475Z,10.30
2022-08-27T11:11:51.460Z,9.199
2022-08-27T11:12:14.307Z,10.19
2022-08-27T11:13:16.093Z,11.5
2022-08-27T11:14:08.100Z,8.899
2022-08-27T11:15:12.267Z,8.699
2022-08-27T11:16:07.733Z,8.600
2022-08-27T11:17:08.734Z,10
2022-08-27T11:18:08.050Z,9.699
2022-08-27T11:19:07.838Z,11.30
2022-08-27T11:20:08.148Z,9.199
2022-08-27T11:21:07.895Z,8.600
2022-08-27T11:22:08.024Z,11.5
2022-08-27T11:23:08.225Z,10.39
2022-08-27T11:25:08.220Z,10
2022-08-27T11:26:08.243Z,9.100
2022-08-27T11:27:07.727Z,10.80
2022-08-27T11:28:08.385Z,10.10
2022-08-27T11:29:07.721Z,9.5
2022-08-27T11:30:08.092Z,11
2022-08-27T11:31:07.843Z,11.60
2022-08-27T11:32:08.337Z,17.29
2022-08-27T11:33:13.766Z,9.600
2022-08-27T11:34:08.337Z,11
2022-08-27T11:35:07.806Z,11.5
2022-08-27T11:36:08.483Z,9.899
2022-08-27T11:37:26.819Z,9.699
2022-08-27T11:38:08.227Z,11.89
2022-08-27T11:39:08.457Z,11.30
2022-08-27T11:40:08.645Z,8.899
2022-08-27T11:41:08.415Z,11.19
2022-08-27T11:42:07.939Z,10.89
2022-08-27T11:43:08.143Z,8.800
2022-08-27T11:44:08.140Z,11.5
2022-08-27T11:45:08.615Z,13.5
2022-08-27T11:46:08.351Z,11.80
2022-08-27T11:47:07.716Z,11.30
2022-08-27T11:48:08.401Z,11.80
2022-08-27T11:49:07.969Z,10.69
2022-08-27T11:50:08.237Z,10.5
2022-08-27T11:51:07.791Z,11.80
2022-08-27T11:52:08.239Z,11.60
2022-08-27T11:53:07.945Z,11.69
2022-08-27T11:54:08.087Z,12.30
2022-08-27T11:55:08.291Z,10.19
2022-08-27T11:56:08.188Z,13.60
2022-08-27T11:57:08.601Z,12.89
2022-08-27T11:58:08.251Z,12.39
2022-08-27T11:59:08.179Z,13.60
2022-08-27T12:00:09.054Z,11.5
2022-08-27T12:01:08.364Z,10.30
2022-08-27T12:02:07.772Z,11.5
2022-08-27T12:03:08.310Z,11.39
2022-08-27T12:04:07.874Z,12.30
2022-08-27T12:05:08.475Z,13.80
2022-08-27T12:06:07.987Z,13.60
2022-08-27T12:07:08.268Z,10.5
2022-08-27T12:08:08.750Z,10.19
2022-08-27T12:09:08.323Z,10.80
2022-08-27T12:10:07.971Z,10.19
2022-08-27T12:11:08.274Z,10.30
2022-08-27T12:12:08.130Z,11.89
2022-08-27T12:13:08.426Z,9.399
2022-08-27T12:14:08.597Z,10.19
2022-08-27T12:15:08.245Z,11
2022-08-27T12:17:08.043Z,11.80
2022-08-27T12:18:08.370Z,10.89
2022-08-27T12:19:08.090Z,12.30
2022-08-27T12:20:08.610Z,10.69
2022-08-27T12:21:08.434Z,14.80
2022-08-27T12:22:08.122Z,13
2022-08-27T12:23:07.466Z,10.30
2022-08-27T12:24:07.909Z,13.10
2022-08-27T12:25:08.257Z,11.10
2022-08-27T12:26:07.710Z,14.39
2022-08-27T12:27:08.167Z,12.5
2022-08-27T12:28:08.238Z,12.80
2022-08-27T12:29:07.933Z,11.39
2022-08-27T12:30:08.378Z,12.80
2022-08-27T12:31:08.196Z,10
2022-08-27T12:32:07.664Z,10.69
2022-08-27T12:33:07.935Z,16
2022-08-27T12:34:07.939Z,11.80
2022-08-27T12:35:08.511Z,12.19
2022-08-27T12:36:08.252Z,14.10
2022-08-27T12:37:08.597Z,13.69
2022-08-27T12:38:08.154Z,11.30
2022-08-27T12:39:08.567Z,13.80
2022-08-27T12:40:08.116Z,12.80
2022-08-27T12:41:07.709Z,14.5
2022-08-27T12:42:08.225Z,14.19
2022-08-27T12:43:08.160Z,13.89
2022-08-27T12:44:07.877Z,12.60
2022-08-27T12:45:08.218Z,12.19
2022-08-27T12:46:07.838Z,14.89
2022-08-27T12:47:08.426Z,12.89
2022-08-27T12:48:07.998Z,11
2022-08-27T12:49:12.858Z,12.19
2022-08-27T12:50:08.414Z,11.80
2022-08-27T12:51:08.020Z,13.39
2022-08-27T12:52:08.143Z,13.5
2022-08-27T12:53:08.081Z,12.19
2022-08-27T12:54:08.445Z,14.5
2022-08-27T12:55:07.685Z,12.10
2022-08-27T12:56:07.959Z,14.30
2022-08-27T12:57:08.082Z,11
2022-08-27T12:58:09.032Z,13.89
2022-08-27T12:59:07.641Z,13.19
2022-08-27T13:00:08.738Z,12.5
2022-08-27T13:01:07.881Z,12.19
2022-08-27T13:02:08.061Z,12.10
2022-08-27T13:03:07.600Z,12.69
2022-08-27T13:04:07.921Z,13.80
2022-08-27T13:05:10.019Z,12.19
2022-08-27T13:06:07.861Z,13.69
2022-08-27T13:07:08.361Z,15.5
2022-08-27T13:08:08.364Z,12.60
2022-08-27T13:09:07.889Z,17.20
2022-08-27T13:10:08.467Z,11.39
2022-08-27T13:11:08.132Z,12.5
2022-08-27T13:12:08.439Z,15.39
2022-08-27T13:13:07.803Z,13.39
2022-08-27T13:14:08.206Z,12.69
2022-08-27T13:15:08.626Z,12.39
2022-08-27T13:16:08.307Z,15.60
2022-08-27T13:17:07.944Z,11.89
2022-08-27T13:18:08.246Z,14.69